createdAt,value
2023-11-20T00:00:54.174Z,2.42
2023-11-20T00:03:23.170Z,2.60
2023-11-20T00:05:50.864Z,3.15
2023-11-20T00:08:20.035Z,3.22
2023-11-20T00:10:49.125Z,2.90
2023-11-20T00:13:16.853Z,2.70
2023-11-20T00:15:44.562Z,2.20
2023-11-20T00:18:12.840Z,2.35
2023-11-20T00:20:40.494Z,3.40
2023-11-20T00:23:08.115Z,2.33
2023-11-20T00:25:35.778Z,2.42
2023-11-20T00:28:04.973Z,3.60
2023-11-20T00:30:32.672Z,3.10
2023-11-20T00:33:01.516Z,1.90
2023-11-20T00:35:29.217Z,1.77
2023-11-20T00:37:57.386Z,1.75
2023-11-20T00:40:25.613Z,1.90
2023-11-20T00:42:53.306Z,2.17
2023-11-20T00:45:22.332Z,1.98
2023-11-20T00:47:50.088Z,2.58
2023-11-20T00:50:17.735Z,4.15
2023-11-20T00:52:45.821Z,1.73
2023-11-20T00:55:13.530Z,2.80
2023-11-20T00:57:42.032Z,1.90
2023-11-20T01:00:12.963Z,1.85
2023-11-20T01:02:42.579Z,2.38
2023-11-20T01:05:10.786Z,2.60
2023-11-20T01:07:38.556Z,2.85
2023-11-20T01:10:07.375Z,2.65
2023-11-20T01:12:36.791Z,2.38
2023-11-20T01:15:07.537Z,3.33
2023-11-20T01:17:37.974Z,2.80
2023-11-20T01:20:07.780Z,2.47
2023-11-20T01:22:36.665Z,3.13
2023-11-20T01:25:05.000Z,2.20
2023-11-20T01:27:32.825Z,3.30
2023-11-20T01:30:00.840Z,2.30
2023-11-20T01:32:28.505Z,2.03
2023-11-20T01:34:56.291Z,2.40
2023-11-20T01:37:25.650Z,2.90
2023-11-20T01:39:53.355Z,2.25
2023-11-20T01:42:21.259Z,2.78
2023-11-20T01:44:48.902Z,3.83
2023-11-20T01:47:16.649Z,2.30
2023-11-20T01:49:44.727Z,3.53
2023-11-20T01:52:12.797Z,3.50
2023-11-20T01:54:43.520Z,2.60
2023-11-20T01:57:12.102Z,3.08
2023-11-20T01:59:40.209Z,2.40
2023-11-20T02:02:08.091Z,4.07
2023-11-20T02:04:36.052Z,3.22
2023-11-20T02:07:05.262Z,2.47
2023-11-20T02:09:33.039Z,2.00
2023-11-20T02:12:02.122Z,3.28
2023-11-20T02:14:29.759Z,3.22
2023-11-20T02:16:57.407Z,3.33
2023-11-20T02:19:25.129Z,4.90
2023-11-20T02:21:52.733Z,2.90
2023-11-20T02:24:23.160Z,2.53
2023-11-20T02:27:00.049Z,3.30
2023-11-20T02:29:34.692Z,2.72
2023-11-20T02:32:03.994Z,2.97
2023-11-20T02:34:33.597Z,2.30
2023-11-20T02:37:01.328Z,2.83
2023-11-20T02:39:28.992Z,1.80
2023-11-20T02:41:56.688Z,3.83
2023-11-20T02:44:24.824Z,2.72
2023-11-20T02:46:52.619Z,3.13
2023-11-20T02:49:21.707Z,2.83
2023-11-20T02:51:50.040Z,3.25
2023-11-20T02:54:17.681Z,1.92
2023-11-20T02:56:45.309Z,2.50
2023-11-20T02:59:12.979Z,2.60
2023-11-20T03:01:40.697Z,2.80
2023-11-20T03:04:08.361Z,2.30
2023-11-20T03:06:37.386Z,2.80
2023-11-20T03:09:05.294Z,2.45
2023-11-20T03:11:33.166Z,2.20
2023-11-20T03:14:01.713Z,2.30
2023-11-20T03:16:29.628Z,3.38
2023-11-20T03:18:57.436Z,3.03
2023-11-20T03:21:25.164Z,2.47
2023-11-20T03:23:54.712Z,2.97
2023-11-20T03:26:23.376Z,2.40
2023-11-20T03:28:51.090Z,2.00
2023-11-20T03:31:18.788Z,2.63
2023-11-20T03:33:47.658Z,2.55
2023-11-20T03:36:15.381Z,2.67
2023-11-20T03:38:43.253Z,2.78
2023-11-20T03:41:12.339Z,3.20
2023-11-20T03:43:40.542Z,3.85
2023-11-20T03:46:08.320Z,2.97
2023-11-20T03:48:36.048Z,2.08
2023-11-20T03:51:05.577Z,3.20
2023-11-20T03:53:33.370Z,2.88
2023-11-20T03:56:01.069Z,3.10
2023-11-20T03:58:30.165Z,3.80
2023-11-20T04:00:57.836Z,3.17
2023-11-20T04:03:25.465Z,3.08
2023-11-20T04:05:53.551Z,2.83
2023-11-20T04:08:21.166Z,4.00
2023-11-20T04:10:48.952Z,3.22
2023-11-20T04:13:16.647Z,3.00
2023-11-20T04:15:45.612Z,3.45
2023-11-20T04:18:13.703Z,2.65
2023-11-20T04:20:41.806Z,3.05
2023-11-20T04:23:09.977Z,2.78
2023-11-20T04:25:37.606Z,2.97
2023-11-20T04:28:05.505Z,2.72
2023-11-20T04:30:33.257Z,2.50
2023-11-20T04:33:02.490Z,2.65
2023-11-20T04:35:30.192Z,2.28
2023-11-20T04:37:57.941Z,3.03
2023-11-20T04:40:26.730Z,2.75
2023-11-20T04:42:54.731Z,3.22
2023-11-20T04:45:22.371Z,3.22
2023-11-20T04:47:50.732Z,2.40
2023-11-20T04:50:19.918Z,3.22
2023-11-20T04:52:47.583Z,2.50
2023-11-20T04:55:15.383Z,2.65
2023-11-20T04:57:43.145Z,3.90
2023-11-20T05:00:12.649Z,2.63
2023-11-20T05:02:41.679Z,2.85
2023-11-20T05:05:10.569Z,2.47
2023-11-20T05:07:40.146Z,2.53
2023-11-20T05:10:08.589Z,2.88
2023-11-20T05:12:36.850Z,3.20
2023-11-20T05:15:04.639Z,2.47
2023-11-20T05:17:32.297Z,2.33
2023-11-20T05:20:00.362Z,3.83
2023-11-20T05:22:28.522Z,3.58
2023-11-20T05:24:57.536Z,2.15
2023-11-20T05:27:25.623Z,3.42
2023-11-20T05:29:53.976Z,2.88
2023-11-20T05:32:21.651Z,1.95
2023-11-20T05:34:49.508Z,3.80
2023-11-20T05:37:17.291Z,2.08
2023-11-20T05:39:45.899Z,2.05
2023-11-20T05:42:14.985Z,2.35
2023-11-20T05:44:42.687Z,2.78
2023-11-20T05:47:10.534Z,2.00
2023-11-20T05:49:39.511Z,2.42
2023-11-20T05:52:07.582Z,2.05
2023-11-20T05:54:35.942Z,2.22
2023-11-20T05:57:03.607Z,2.95
2023-11-20T05:59:32.630Z,2.80
2023-11-20T06:02:01.706Z,1.70
2023-11-20T06:04:29.802Z,2.03
2023-11-20T06:06:57.538Z,3.72
2023-11-20T06:09:25.566Z,2.13
2023-11-20T06:11:53.172Z,2.58
2023-11-20T06:14:20.802Z,3.72
2023-11-20T06:16:49.966Z,2.10
2023-11-20T06:19:18.059Z,2.45
2023-11-20T06:21:46.322Z,2.17
2023-11-20T06:24:15.684Z,2.22
2023-11-20T06:26:43.713Z,2.97
2023-11-20T06:29:11.573Z,3.08
2023-11-20T06:31:39.394Z,2.63
2023-11-20T06:34:08.841Z,2.35
2023-11-20T06:36:36.816Z,2.40
2023-11-20T06:39:07.135Z,1.67
2023-11-20T06:41:35.721Z,3.70
2023-11-20T06:44:03.412Z,2.78
2023-11-20T06:46:31.161Z,2.42
2023-11-20T06:48:58.933Z,1.42
2023-11-20T06:51:28.027Z,2.28
2023-11-20T06:53:56.868Z,2.38
2023-11-20T06:56:24.589Z,2.95
2023-11-20T06:58:53.316Z,3.35
2023-11-20T07:01:21.472Z,2.60
2023-11-20T07:03:49.276Z,1.70
2023-11-20T07:06:20.206Z,2.65
2023-11-20T07:08:50.270Z,1.42
2023-11-20T07:11:17.996Z,1.63
2023-11-20T07:13:45.814Z,1.58
2023-11-20T07:16:13.742Z,2.83
2023-11-20T07:18:44.016Z,2.00
2023-11-20T07:21:11.768Z,2.28
2023-11-20T07:23:39.987Z,2.67
2023-11-20T07:26:09.176Z,2.22
2023-11-20T07:28:37.812Z,2.13
2023-11-20T07:31:05.914Z,2.30
2023-11-20T07:33:33.639Z,1.98
2023-11-20T07:36:01.541Z,1.83
2023-11-20T07:38:30.647Z,2.13
2023-11-20T07:41:01.264Z,1.92
2023-11-20T07:43:30.696Z,2.13
2023-11-20T07:45:58.630Z,3.03
2023-11-20T07:48:26.493Z,1.42
2023-11-20T07:50:54.130Z,1.40
2023-11-20T07:53:22.078Z,1.63
2023-11-20T07:55:50.487Z,1.98
2023-11-20T07:58:18.419Z,1.17
2023-11-20T08:00:48.600Z,1.10
2023-11-20T08:03:16.421Z,1.27
2023-11-20T08:05:49.578Z,1.60
2023-11-20T08:08:18.101Z,2.10
2023-11-20T08:10:45.770Z,1.38
2023-11-20T08:13:13.448Z,3.30
2023-11-20T08:15:41.269Z,2.45
2023-11-20T08:18:12.846Z,2.33
2023-11-20T08:20:40.501Z,1.48
2023-11-20T08:23:08.197Z,1.83
2023-11-20T08:25:37.130Z,1.42
2023-11-20T08:28:04.981Z,1.80
2023-11-20T08:30:35.169Z,1.65
2023-11-20T08:33:03.144Z,1.52
2023-11-20T08:35:32.132Z,1.55
2023-11-20T08:37:59.900Z,1.45
2023-11-20T08:40:28.240Z,1.45
2023-11-20T08:42:57.100Z,1.58
2023-11-20T08:45:24.836Z,1.83
2023-11-20T08:47:52.536Z,1.80
2023-11-20T08:50:20.571Z,1.80
2023-11-20T08:52:58.305Z,2.55
2023-11-20T08:55:26.086Z,1.90
2023-11-20T08:57:54.509Z,1.65
2023-11-20T09:00:22.215Z,1.63
2023-11-20T09:02:49.944Z,2.55
2023-11-20T09:05:18.027Z,2.03
2023-11-20T09:07:46.186Z,1.75
2023-11-20T09:10:15.253Z,2.53
2023-11-20T09:12:44.143Z,1.70
2023-11-20T09:15:13.095Z,1.67
2023-11-20T09:17:41.051Z,2.83
2023-11-20T09:20:11.948Z,2.42
2023-11-20T09:22:39.660Z,3.45
2023-11-20T09:25:09.953Z,2.38
2023-11-20T09:27:38.974Z,3.53
2023-11-20T09:30:07.830Z,3.03
2023-11-20T09:32:35.561Z,4.38
2023-11-20T09:35:04.108Z,2.53
2023-11-20T09:37:32.422Z,3.50
2023-11-20T09:40:01.803Z,2.22
2023-11-20T09:42:29.958Z,3.03
2023-11-20T09:45:01.533Z,2.92
2023-11-20T09:47:30.479Z,2.45
2023-11-20T09:49:59.225Z,2.80
2023-11-20T09:52:27.939Z,4.63
2023-11-20T09:54:56.899Z,3.50
2023-11-20T09:57:27.442Z,2.92
2023-11-20T09:59:55.094Z,3.67
2023-11-20T10:02:24.291Z,2.45
2023-11-20T10:04:54.015Z,3.25
2023-11-20T10:07:24.735Z,3.05
2023-11-20T10:09:53.679Z,4.22
2023-11-20T10:12:21.536Z,3.28
2023-11-20T10:14:49.750Z,3.95
2023-11-20T10:17:20.801Z,2.65
2023-11-20T10:19:49.866Z,2.67
2023-11-20T10:22:21.264Z,3.10
2023-11-20T10:24:50.069Z,3.15
2023-11-20T10:27:21.953Z,2.80
2023-11-20T10:29:49.612Z,2.83
2023-11-20T10:32:17.625Z,2.92
2023-11-20T10:34:46.123Z,3.38
2023-11-20T10:37:15.798Z,3.03
2023-11-20T10:39:43.565Z,2.35
2023-11-20T10:42:14.638Z,2.00
2023-11-20T10:44:44.104Z,2.67
2023-11-20T10:47:13.161Z,2.50
2023-11-20T10:49:43.678Z,2.50
2023-11-20T10:52:17.207Z,3.47
2023-11-20T10:54:49.325Z,2.63
2023-11-20T10:57:19.118Z,2.55
2023-11-20T10:59:47.366Z,2.13
2023-11-20T11:02:19.981Z,2.38
2023-11-20T11:04:49.596Z,2.50
2023-11-20T11:07:18.132Z,2.63
2023-11-20T11:09:47.544Z,2.80
2023-11-20T11:12:17.037Z,2.17
2023-11-20T11:14:45.883Z,2.40
2023-11-20T11:17:16.164Z,2.75
2023-11-20T11:19:48.137Z,2.58
2023-11-20T11:22:21.222Z,2.40
2023-11-20T11:24:52.041Z,1.98
2023-11-20T11:27:20.691Z,1.85
2023-11-20T11:29:51.098Z,2.33
2023-11-20T11:32:38.923Z,3.22
2023-11-20T11:35:15.031Z,1.77
2023-11-20T11:37:47.142Z,2.47
2023-11-20T11:40:19.962Z,1.85
2023-11-20T11:42:50.137Z,2.20
2023-11-20T11:45:19.740Z,2.40
2023-11-20T11:47:48.619Z,2.13
2023-11-20T11:50:16.933Z,1.85
2023-11-20T11:52:45.479Z,1.75
2023-11-20T11:55:26.896Z,1.40
2023-11-20T11:57:59.971Z,1.88
2023-11-20T12:00:28.784Z,1.77
2023-11-20T12:03:02.347Z,2.15
2023-11-20T12:05:32.903Z,1.77
2023-11-20T12:08:03.022Z,2.55
2023-11-20T12:10:53.030Z,2.80
2023-11-20T12:13:21.211Z,2.35
2023-11-20T12:15:49.694Z,2.95
2023-11-20T12:18:18.486Z,2.15
2023-11-20T12:21:02.127Z,1.70
2023-11-20T12:23:31.438Z,1.80
2023-11-20T12:26:01.790Z,1.70
2023-11-20T12:28:32.829Z,2.20
2023-11-20T12:31:05.300Z,2.05
2023-11-20T12:33:34.322Z,1.48
2023-11-20T12:36:02.599Z,1.67
2023-11-20T12:38:33.131Z,1.92
2023-11-20T12:41:05.052Z,1.45
2023-11-20T12:43:34.498Z,1.52
2023-11-20T12:46:02.520Z,1.50
2023-11-20T12:48:30.818Z,1.65
2023-11-20T12:50:58.461Z,1.65
2023-11-20T12:53:26.205Z,1.60
2023-11-20T12:55:55.886Z,1.85
2023-11-20T12:58:24.978Z,1.40
2023-11-20T13:00:54.608Z,1.50
2023-11-20T13:03:22.936Z,1.55
2023-11-20T13:05:50.360Z,2.05
2023-11-20T13:08:19.613Z,1.55
2023-11-20T13:10:51.533Z,2.15
2023-11-20T13:13:21.995Z,2.00
2023-11-20T13:15:52.837Z,1.38
2023-11-20T13:18:21.707Z,1.30
2023-11-20T13:20:50.042Z,1.40
2023-11-20T13:23:17.608Z,1.42
2023-11-20T13:25:46.558Z,1.38
2023-11-20T13:28:15.275Z,1.45
2023-11-20T13:30:57.809Z,1.40
2023-11-20T13:33:28.555Z,1.38
2023-11-20T13:35:56.990Z,1.60
2023-11-20T13:38:24.841Z,1.50
2023-11-20T13:40:52.750Z,2.08
2023-11-20T13:43:20.480Z,1.30
2023-11-20T13:45:48.462Z,2.08
2023-11-20T13:48:16.268Z,1.48
2023-11-20T13:50:46.583Z,2.10
2023-11-20T13:53:14.579Z,1.15
2023-11-20T13:55:45.968Z,1.52
2023-11-20T13:58:15.028Z,1.52
2023-11-20T14:00:43.041Z,2.08
2023-11-20T14:03:11.198Z,1.40
2023-11-20T14:05:39.054Z,1.88
2023-11-20T14:08:08.369Z,1.65
2023-11-20T14:10:36.233Z,1.67
2023-11-20T14:13:03.906Z,1.67
2023-11-20T14:15:31.558Z,2.10
2023-11-20T14:17:59.219Z,1.80
2023-11-20T14:20:27.360Z,1.80
2023-11-20T14:22:55.214Z,2.38
2023-11-20T14:25:25.611Z,2.03
2023-11-20T14:27:53.486Z,2.53
2023-11-20T14:30:21.629Z,1.98
2023-11-20T14:32:49.524Z,1.73
2023-11-20T14:35:18.129Z,1.90
2023-11-20T14:37:46.220Z,2.65
2023-11-20T14:40:17.064Z,1.83
2023-11-20T14:42:47.207Z,1.90
2023-11-20T14:45:15.980Z,3.20
2023-11-20T14:47:44.564Z,2.00
2023-11-20T14:50:14.420Z,2.17
2023-11-20T14:52:42.930Z,2.28
2023-11-20T14:55:11.819Z,2.83
2023-11-20T14:57:39.903Z,2.20
2023-11-20T15:00:15.212Z,2.30
2023-11-20T15:05:13.369Z,3.72
2023-11-20T15:07:42.113Z,1.83
2023-11-20T15:10:10.502Z,2.05
2023-11-20T15:12:38.748Z,2.33
2023-11-20T15:15:07.293Z,2.00
2023-11-20T15:17:36.373Z,2.10
2023-11-20T15:20:05.731Z,2.30
2023-11-20T15:22:33.691Z,2.88
2023-11-20T15:25:01.549Z,2.47
2023-11-20T15:27:29.275Z,2.47
2023-11-20T15:29:56.953Z,2.80
2023-11-20T15:32:24.689Z,2.67
2023-11-20T15:34:53.722Z,2.83
2023-11-20T15:37:21.368Z,3.25
2023-11-20T15:39:50.812Z,3.25
2023-11-20T15:42:18.553Z,4.15
2023-11-20T15:44:46.237Z,3.60
2023-11-20T15:47:14.033Z,3.05
2023-11-20T15:49:42.142Z,5.18
2023-11-20T15:52:12.617Z,5.03
2023-11-20T15:54:41.289Z,6.22
2023-11-20T15:57:10.544Z,5.75
2023-11-20T15:59:38.691Z,4.38
2023-11-20T16:02:08.754Z,4.45
2023-11-20T16:04:36.561Z,4.75
2023-11-20T16:07:04.320Z,6.65
2023-11-20T16:09:33.554Z,9.90
2023-11-20T16:12:01.331Z,9.50
2023-11-20T16:14:28.971Z,6.38
2023-11-20T16:16:56.788Z,5.93
2023-11-20T16:19:25.111Z,5.82
2023-11-20T16:21:53.202Z,3.97
2023-11-20T16:24:21.500Z,4.57
2023-11-20T16:26:51.168Z,4.47
2023-11-20T16:29:19.359Z,5.20
2023-11-20T16:31:47.612Z,4.82
2023-11-20T16:34:16.133Z,5.05
2023-11-20T16:36:44.581Z,6.03
2023-11-20T16:39:13.963Z,4.32
2023-11-20T16:41:41.613Z,4.90
2023-11-20T16:44:11.582Z,4.80
2023-11-20T16:46:39.322Z,3.72
2023-11-20T16:49:07.027Z,4.90
2023-11-20T16:51:34.889Z,4.78
2023-11-20T16:54:03.306Z,5.32
2023-11-20T16:56:32.364Z,5.60
2023-11-20T16:59:01.175Z,23.85
2023-11-20T17:01:30.581Z,7.25
2023-11-20T17:04:02.965Z,7.03
2023-11-20T17:06:31.239Z,7.45
2023-11-20T17:08:58.979Z,8.40
2023-11-20T17:11:27.059Z,8.38
2023-11-20T17:13:54.747Z,10.55
2023-11-20T17:16:22.899Z,10.10
2023-11-20T17:18:51.947Z,12.68
2023-11-20T17:21:19.600Z,13.75
2023-11-20T17:23:47.278Z,10.98
2023-11-20T17:26:14.942Z,12.00
2023-11-20T17:28:42.669Z,12.50
2023-11-20T17:31:10.408Z,13.80
2023-11-20T17:33:38.183Z,12.50
2023-11-20T17:36:13.745Z,12.95
2023-11-20T17:38:41.463Z,11.93
2023-11-20T17:41:09.184Z,11.85
2023-11-20T17:43:38.269Z,11.77
2023-11-20T17:46:06.398Z,10.27
2023-11-20T17:48:34.064Z,11.68
2023-11-20T17:51:01.879Z,13.80
2023-11-20T17:53:30.903Z,12.85
2023-11-20T17:55:59.559Z,12.93
2023-11-20T17:58:27.370Z,12.15
2023-11-20T18:00:55.176Z,15.98
2023-11-20T18:03:23.168Z,13.50
2023-11-20T18:05:50.957Z,14.43
2023-11-20T18:08:18.737Z,14.55
2023-11-20T18:10:48.037Z,14.23
2023-11-20T18:13:16.268Z,14.60
2023-11-20T18:15:44.040Z,14.27
2023-11-20T18:18:12.120Z,16.15
2023-11-20T18:20:40.018Z,15.27
2023-11-20T18:23:08.684Z,15.93
2023-11-20T18:25:36.584Z,17.33
2023-11-20T18:28:08.008Z,15.45
2023-11-20T18:30:35.905Z,13.60
2023-11-20T18:33:05.488Z,15.93
2023-11-20T18:35:33.783Z,14.60
2023-11-20T18:38:01.460Z,14.32
2023-11-20T18:40:29.166Z,13.98
2023-11-20T18:42:56.888Z,14.77
2023-11-20T18:45:26.345Z,13.20
2023-11-20T18:47:54.050Z,15.52
2023-11-20T18:50:21.813Z,15.00
2023-11-20T18:52:49.514Z,13.25
2023-11-20T18:55:17.404Z,14.23
2023-11-20T18:57:51.045Z,13.43
2023-11-20T19:00:20.784Z,14.98
2023-11-20T19:02:49.943Z,13.02
2023-11-20T19:05:17.625Z,16.73
2023-11-20T19:07:45.331Z,14.65
2023-11-20T19:10:13.444Z,14.10
2023-11-20T19:12:45.426Z,14.20
2023-11-20T19:15:14.172Z,16.77
2023-11-20T19:17:42.557Z,16.00
2023-11-20T19:20:14.585Z,16.13
2023-11-20T19:22:42.796Z,13.45
2023-11-20T19:25:12.354Z,16.13
2023-11-20T19:27:40.222Z,16.75
2023-11-20T19:30:09.665Z,14.52
2023-11-20T19:32:37.689Z,15.75
2023-11-20T19:35:05.945Z,14.98
2023-11-20T19:37:36.298Z,15.98
2023-11-20T19:40:16.340Z,16.42
2023-11-20T19:42:44.222Z,16.48
2023-11-20T19:45:12.067Z,15.95
2023-11-20T19:47:40.705Z,15.70
2023-11-20T19:50:10.289Z,17.88
2023-11-20T19:52:39.514Z,18.27
2023-11-20T19:55:07.748Z,18.65
2023-11-20T19:57:35.619Z,14.68
2023-11-20T20:00:06.989Z,15.70
2023-11-20T20:02:34.677Z,16.15
2023-11-20T20:05:03.105Z,14.40
2023-11-20T20:07:30.919Z,17.92
2023-11-20T20:10:00.374Z,17.48
2023-11-20T20:12:28.269Z,15.50
2023-11-20T20:14:55.896Z,17.30
2023-11-20T20:17:23.725Z,16.67
2023-11-20T20:19:51.512Z,17.05
2023-11-20T20:22:20.698Z,15.88
2023-11-20T20:24:48.423Z,15.02
2023-11-20T20:27:18.779Z,16.38
2023-11-20T20:29:46.893Z,16.33
2023-11-20T20:32:15.356Z,16.52
2023-11-20T20:34:43.886Z,17.08
2023-11-20T20:37:13.069Z,14.25
2023-11-20T20:39:41.293Z,15.45
2023-11-20T20:42:09.148Z,14.82
2023-11-20T20:44:39.914Z,14.20
2023-11-20T20:47:09.298Z,16.25
2023-11-20T20:49:38.899Z,15.20
2023-11-20T20:52:07.093Z,15.80
2023-11-20T20:54:36.100Z,16.88
2023-11-20T20:57:05.233Z,16.42
2023-11-20T20:59:33.023Z,13.73
2023-11-20T21:02:02.206Z,18.27
2023-11-20T21:04:30.503Z,15.88
2023-11-20T21:06:58.539Z,15.23
2023-11-20T21:09:26.375Z,16.10
2023-11-20T21:11:57.355Z,16.70
2023-11-20T21:14:25.523Z,16.77
2023-11-20T21:16:54.188Z,17.00
2023-11-20T21:19:23.249Z,16.98
2023-11-20T21:21:50.987Z,18.88
2023-11-20T21:24:18.596Z,18.05
2023-11-20T21:26:46.220Z,16.90
2023-11-20T21:29:14.253Z,21.05
2023-11-20T21:31:45.349Z,18.08
2023-11-20T21:34:13.481Z,22.58
2023-11-20T21:36:42.535Z,19.73
2023-11-20T21:39:12.876Z,19.75
2023-11-20T21:41:41.181Z,16.70
2023-11-20T21:44:09.100Z,18.42
2023-11-20T21:46:38.798Z,18.63
2023-11-20T21:49:13.257Z,18.00
2023-11-20T21:51:42.318Z,15.73
2023-11-20T21:54:10.393Z,16.67
2023-11-20T21:56:41.254Z,15.95
2023-11-20T21:59:09.142Z,14.48
2023-11-20T22:01:36.882Z,14.82
2023-11-20T22:04:05.354Z,13.07
2023-11-20T22:06:33.195Z,14.15
2023-11-20T22:09:02.890Z,13.88
2023-11-20T22:11:30.535Z,13.13
2023-11-20T22:13:58.235Z,11.73
2023-11-20T22:16:25.928Z,14.63
2023-11-20T22:18:54.098Z,12.98
2023-11-20T22:21:21.759Z,13.45
2023-11-20T22:23:49.495Z,12.13
2023-11-20T22:26:20.065Z,13.68
2023-11-20T22:28:48.679Z,13.95
2023-11-20T22:31:16.381Z,14.13
2023-11-20T22:33:44.244Z,14.57
2023-11-20T22:36:12.385Z,13.98
2023-11-20T22:38:40.138Z,15.20
2023-11-20T22:41:07.987Z,13.85
2023-11-20T22:43:37.793Z,14.52
2023-11-20T22:46:06.158Z,12.75
2023-11-20T22:48:33.839Z,13.18
2023-11-20T22:51:02.726Z,12.30
2023-11-20T22:53:31.364Z,12.32
2023-11-20T22:55:59.008Z,13.60
2023-11-20T22:58:26.724Z,14.52
2023-11-20T23:00:57.212Z,14.45
2023-11-20T23:03:25.174Z,15.13
2023-11-20T23:05:55.517Z,14.52
2023-11-20T23:08:23.279Z,16.00
2023-11-20T23:10:50.939Z,14.23
2023-11-20T23:13:18.899Z,14.35
2023-11-20T23:15:47.800Z,13.93
2023-11-20T23:18:17.811Z,12.73
2023-11-20T23:20:46.983Z,14.88
2023-11-20T23:23:15.470Z,14.13
2023-11-20T23:25:43.319Z,14.93
2023-11-20T23:28:11.448Z,12.70
2023-11-20T23:30:39.315Z,14.90
2023-11-20T23:33:07.005Z,14.70
2023-11-20T23:35:36.854Z,14.48
2023-11-20T23:38:04.557Z,15.32
2023-11-20T23:40:32.643Z,14.88
2023-11-20T23:43:00.343Z,14.20
2023-11-20T23:45:28.012Z,14.20
2023-11-20T23:47:57.807Z,15.05
2023-11-20T23:50:26.237Z,12.98
2023-11-20T23:52:55.526Z,13.18
2023-11-20T23:55:24.174Z,13.60
2023-11-20T23:57:52.685Z,16.60
